BAW19N EGLL-TXKF
Flight info
| Callsign | BAW19N |
|---|---|
| Flight time | N/A |
| Altitude | 36000 |
| Route | GOGSI N621 EVTES N514 ADKIK DCT JOZMA DCT LULOX/M083F360 DCT BEDRA DCT 4730N02000W 44N030W/M083F380 41N040W 3730N05000W/M083F400 35N060W DCT BALOO MOMOM1 |
| Aircraft | B772/H-SDE2E3FGHIJ5LORVWXY/LB1D1 |
Departure
| Time | N/A |
|---|---|
| Airport | London Heathrow Airport (EGLL) |
Arrival
| Time | 2026-04-21 16:46 |
|---|---|
| Airport | L.F. Wade International Airport (TXKF) |
| Time | Latitude | Longitude | Altitude | Speed | Heading |
|---|---|---|---|---|---|
| 2026-04-21 15:30 | 35.97653 | -56.54530 | 39963 ft | 417 kts | 250° |
| 2026-04-21 15:30 | 35.96762 | -56.57887 | 39979 ft | 417 kts | 250° |
| 2026-04-21 15:31 | 35.94946 | -56.64719 | 39961 ft | 418 kts | 250° |
| 2026-04-21 15:31 | 35.93131 | -56.71532 | 39962 ft | 418 kts | 250° |
| 2026-04-21 15:32 | 35.91320 | -56.78310 | 39950 ft | 418 kts | 250° |
| 2026-04-21 15:32 | 35.89493 | -56.85133 | 39973 ft | 418 kts | 250° |
| 2026-04-21 15:33 | 35.87670 | -56.91923 | 39955 ft | 418 kts | 250° |
| 2026-04-21 15:33 | 35.85834 | -56.98741 | 39942 ft | 419 kts | 250° |
| 2026-04-21 15:34 | 35.83991 | -57.05571 | 39944 ft | 418 kts | 250° |
| 2026-04-21 15:34 | 35.82157 | -57.12349 | 39957 ft | 418 kts | 249° |
| 2026-04-21 15:35 | 35.80310 | -57.19159 | 39935 ft | 419 kts | 249° |
| 2026-04-21 15:35 | 35.78462 | -57.25953 | 39935 ft | 419 kts | 249° |
| 2026-04-21 15:36 | 35.76614 | -57.32729 | 39929 ft | 419 kts | 249° |
| 2026-04-21 15:36 | 35.74752 | -57.39542 | 39940 ft | 419 kts | 249° |
| 2026-04-21 15:37 | 35.72887 | -57.46350 | 39901 ft | 419 kts | 249° |
| 2026-04-21 15:37 | 35.71031 | -57.53106 | 39920 ft | 419 kts | 249° |
| 2026-04-21 15:38 | 35.69157 | -57.59909 | 39915 ft | 419 kts | 249° |
| 2026-04-21 15:38 | 35.67291 | -57.66671 | 39935 ft | 419 kts | 249° |
| 2026-04-21 15:39 | 35.65411 | -57.73464 | 39907 ft | 419 kts | 249° |
| 2026-04-21 15:39 | 35.63527 | -57.80251 | 39914 ft | 419 kts | 248° |
| 2026-04-21 15:40 | 35.61655 | -57.86979 | 39907 ft | 418 kts | 249° |
| 2026-04-21 15:40 | 35.59768 | -57.93749 | 39925 ft | 418 kts | 248° |
| 2026-04-21 15:41 | 35.57873 | -58.00528 | 39902 ft | 418 kts | 248° |
| 2026-04-21 15:41 | 35.55987 | -58.07256 | 39898 ft | 418 kts | 248° |
| 2026-04-21 15:42 | 35.54097 | -58.13985 | 39898 ft | 418 kts | 248° |
| 2026-04-21 15:42 | 35.52192 | -58.20748 | 39900 ft | 418 kts | 248° |
| 2026-04-21 15:43 | 35.50285 | -58.27507 | 39891 ft | 418 kts | 248° |
| 2026-04-21 15:43 | 35.48381 | -58.34230 | 39887 ft | 418 kts | 248° |
| 2026-04-21 15:44 | 35.46464 | -58.40987 | 39882 ft | 419 kts | 248° |
| 2026-04-21 15:44 | 35.44556 | -58.47697 | 39888 ft | 419 kts | 248° |
| 2026-04-21 15:45 | 35.42628 | -58.54464 | 39890 ft | 420 kts | 246° |
| 2026-04-21 15:45 | 35.40693 | -58.61234 | 39871 ft | 420 kts | 247° |
| 2026-04-21 15:46 | 35.38771 | -58.67943 | 39878 ft | 419 kts | 247° |
| 2026-04-21 15:46 | 35.36830 | -58.74702 | 39878 ft | 420 kts | 247° |
| 2026-04-21 15:47 | 35.34884 | -58.81462 | 39879 ft | 420 kts | 247° |
| 2026-04-21 15:47 | 35.32949 | -58.88169 | 39881 ft | 420 kts | 247° |
| 2026-04-21 15:48 | 35.30994 | -58.94928 | 39878 ft | 420 kts | 247° |
| 2026-04-21 15:48 | 35.29048 | -59.01639 | 39879 ft | 419 kts | 247° |
| 2026-04-21 15:49 | 35.27094 | -59.08367 | 39888 ft | 419 kts | 246° |
| 2026-04-21 15:49 | 35.25144 | -59.15058 | 39892 ft | 419 kts | 246° |
| 2026-04-21 15:50 | 35.23177 | -59.21792 | 39880 ft | 420 kts | 246° |
| 2026-04-21 15:50 | 35.21216 | -59.28492 | 39890 ft | 419 kts | 246° |
| 2026-04-21 15:51 | 35.19239 | -59.35231 | 39881 ft | 420 kts | 245° |
| 2026-04-21 15:51 | 35.17263 | -59.41952 | 39892 ft | 420 kts | 245° |
| 2026-04-21 15:52 | 35.15293 | -59.48634 | 39896 ft | 420 kts | 245° |
| 2026-04-21 15:52 | 35.13304 | -59.55365 | 39897 ft | 420 kts | 245° |
| 2026-04-21 15:53 | 35.11321 | -59.62062 | 39929 ft | 421 kts | 245° |
| 2026-04-21 15:53 | 35.09322 | -59.68794 | 39912 ft | 420 kts | 245° |
| 2026-04-21 15:54 | 35.07333 | -59.75483 | 39897 ft | 420 kts | 245° |
| 2026-04-21 15:54 | 35.05332 | -59.82194 | 39909 ft | 419 kts | 245° |
| 2026-04-21 15:55 | 35.03345 | -59.88840 | 39954 ft | 418 kts | 245° |
| 2026-04-21 15:55 | 35.01358 | -59.95475 | 39933 ft | 417 kts | 245° |
| 2026-04-21 15:56 | 34.99381 | -60.02126 | 39934 ft | 416 kts | 246° |
| 2026-04-21 15:56 | 34.97568 | -60.08842 | 39931 ft | 415 kts | 247° |
| 2026-04-21 15:57 | 34.95815 | -60.15490 | 39924 ft | 413 kts | 247° |
| 2026-04-21 15:57 | 34.94039 | -60.22144 | 39938 ft | 412 kts | 247° |
| 2026-04-21 15:58 | 34.92251 | -60.28779 | 39931 ft | 411 kts | 247° |
| 2026-04-21 15:58 | 34.90468 | -60.35362 | 39956 ft | 410 kts | 247° |
| 2026-04-21 15:59 | 34.88686 | -60.41921 | 39968 ft | 409 kts | 247° |
| 2026-04-21 15:59 | 34.86887 | -60.48526 | 39973 ft | 410 kts | 247° |
| 2026-04-21 16:00 | 34.85092 | -60.55100 | 39955 ft | 411 kts | 247° |
| 2026-04-21 16:00 | 34.83279 | -60.61729 | 39964 ft | 411 kts | 247° |
| 2026-04-21 16:01 | 34.81474 | -60.68313 | 39964 ft | 412 kts | 247° |
| 2026-04-21 16:01 | 34.79650 | -60.74948 | 39966 ft | 413 kts | 247° |
| 2026-04-21 16:02 | 34.77813 | -60.81613 | 39982 ft | 415 kts | 247° |
| 2026-04-21 16:02 | 34.75978 | -60.88254 | 39974 ft | 416 kts | 247° |
| 2026-04-21 16:03 | 34.74139 | -60.94899 | 39973 ft | 417 kts | 247° |
| 2026-04-21 16:03 | 34.72279 | -61.01601 | 39981 ft | 417 kts | 247° |
| 2026-04-21 16:04 | 34.70418 | -61.08294 | 39985 ft | 418 kts | 248° |
| 2026-04-21 16:04 | 34.68554 | -61.14974 | 39984 ft | 419 kts | 248° |
| 2026-04-21 16:05 | 34.66680 | -61.21676 | 39981 ft | 420 kts | 248° |
| 2026-04-21 16:05 | 34.64787 | -61.28431 | 39987 ft | 421 kts | 248° |
| 2026-04-21 16:06 | 34.62905 | -61.35130 | 40024 ft | 422 kts | 248° |
| 2026-04-21 16:06 | 34.60998 | -61.41903 | 39989 ft | 423 kts | 248° |
| 2026-04-21 16:07 | 34.59099 | -61.48632 | 40000 ft | 423 kts | 248° |
| 2026-04-21 16:07 | 34.57184 | -61.55402 | 39997 ft | 423 kts | 248° |
| 2026-04-21 16:08 | 34.54316 | -61.65506 | 40002 ft | 423 kts | 248° |
| 2026-04-21 16:09 | 34.52389 | -61.72275 | 40012 ft | 423 kts | 248° |
| 2026-04-21 16:09 | 34.50475 | -61.78985 | 40011 ft | 423 kts | 248° |
| 2026-04-21 16:10 | 34.48547 | -61.85728 | 40003 ft | 421 kts | 248° |
| 2026-04-21 16:10 | 34.46636 | -61.92393 | 40033 ft | 420 kts | 248° |
| 2026-04-21 16:11 | 34.44707 | -61.99106 | 40027 ft | 421 kts | 248° |
| 2026-04-21 16:11 | 34.42785 | -62.05782 | 40026 ft | 421 kts | 248° |
| 2026-04-21 16:12 | 34.41170 | -62.11380 | 40021 ft | 422 kts | 248° |
| 2026-04-21 16:12 | 34.38845 | -62.19169 | 40034 ft | 422 kts | 246° |
| 2026-04-21 16:13 | 34.36760 | -62.25835 | 40040 ft | 423 kts | 247° |
| 2026-04-21 16:13 | 34.34672 | -62.32503 | 40041 ft | 424 kts | 247° |
| 2026-04-21 16:14 | 34.32595 | -62.39162 | 40036 ft | 424 kts | 247° |
| 2026-04-21 16:14 | 34.30511 | -62.45843 | 40043 ft | 425 kts | 247° |
| 2026-04-21 16:15 | 34.28430 | -62.52503 | 40042 ft | 425 kts | 247° |
| 2026-04-21 16:15 | 34.26328 | -62.59211 | 40058 ft | 426 kts | 247° |
| 2026-04-21 16:16 | 34.24577 | -62.64790 | 40034 ft | 426 kts | 247° |
| 2026-04-21 16:16 | 34.22475 | -62.71471 | 40046 ft | 426 kts | 247° |
| 2026-04-21 16:17 | 34.20363 | -62.78172 | 40054 ft | 426 kts | 247° |
| 2026-04-21 16:17 | 34.18259 | -62.84830 | 40077 ft | 426 kts | 247° |
| 2026-04-21 16:18 | 34.16135 | -62.91539 | 40069 ft | 427 kts | 247° |
| 2026-04-21 16:18 | 34.14019 | -62.98210 | 40068 ft | 428 kts | 247° |
| 2026-04-21 16:19 | 34.11075 | -63.04404 | 40042 ft | 425 kts | 231° |
| 2026-04-21 16:19 | 34.06919 | -63.09427 | 40056 ft | 427 kts | 218° |
| 2026-04-21 16:20 | 34.02018 | -63.13513 | 40095 ft | 428 kts | 217° |
| 2026-04-21 16:20 | 33.97057 | -63.17563 | 40078 ft | 431 kts | 217° |
| 2026-04-21 16:21 | 33.92120 | -63.21633 | 40062 ft | 432 kts | 217° |
| 2026-04-21 16:21 | 33.87175 | -63.25738 | 40063 ft | 432 kts | 217° |
| 2026-04-21 16:22 | 33.82241 | -63.29840 | 39834 ft | 437 kts | 217° |
| 2026-04-21 16:22 | 33.79713 | -63.31942 | 39242 ft | 439 kts | 217° |
| 2026-04-21 16:22 | 33.77195 | -63.34032 | 38341 ft | 439 kts | 217° |
| 2026-04-21 16:22 | 33.74688 | -63.36111 | 37496 ft | 436 kts | 217° |
| 2026-04-21 16:23 | 33.72199 | -63.38172 | 36637 ft | 434 kts | 217° |
| 2026-04-21 16:23 | 33.69710 | -63.40232 | 35808 ft | 431 kts | 216° |
| 2026-04-21 16:23 | 33.67244 | -63.42273 | 34922 ft | 430 kts | 216° |
| 2026-04-21 16:23 | 33.64778 | -63.44312 | 34043 ft | 429 kts | 216° |
| 2026-04-21 16:24 | 33.62345 | -63.46322 | 32967 ft | 429 kts | 216° |
| 2026-04-21 16:24 | 33.59897 | -63.48343 | 32224 ft | 422 kts | 216° |
| 2026-04-21 16:24 | 33.57496 | -63.50323 | 31516 ft | 416 kts | 216° |
| 2026-04-21 16:24 | 33.55119 | -63.52282 | 30833 ft | 410 kts | 216° |
| 2026-04-21 16:25 | 33.52816 | -63.54179 | 30193 ft | 404 kts | 216° |
| 2026-04-21 16:25 | 33.50513 | -63.56075 | 29398 ft | 399 kts | 216° |
| 2026-04-21 16:25 | 33.48238 | -63.57947 | 28696 ft | 392 kts | 216° |
| 2026-04-21 16:25 | 33.45993 | -63.59793 | 28013 ft | 387 kts | 216° |
| 2026-04-21 16:26 | 33.43812 | -63.61585 | 27334 ft | 382 kts | 216° |
| 2026-04-21 16:26 | 33.41622 | -63.63384 | 26671 ft | 378 kts | 216° |
| 2026-04-21 16:26 | 33.39454 | -63.65164 | 26019 ft | 374 kts | 217° |
| 2026-04-21 16:26 | 33.37343 | -63.66896 | 25388 ft | 371 kts | 217° |
| 2026-04-21 16:27 | 33.35218 | -63.68639 | 24765 ft | 368 kts | 217° |
| 2026-04-21 16:27 | 33.33109 | -63.70368 | 24134 ft | 366 kts | 217° |
| 2026-04-21 16:27 | 33.31010 | -63.72087 | 23447 ft | 364 kts | 217° |
| 2026-04-21 16:27 | 33.28923 | -63.73794 | 22781 ft | 361 kts | 217° |
| 2026-04-21 16:28 | 33.26882 | -63.75463 | 22179 ft | 358 kts | 217° |
| 2026-04-21 16:28 | 33.24834 | -63.77137 | 21591 ft | 354 kts | 217° |
| 2026-04-21 16:28 | 33.22809 | -63.78791 | 21020 ft | 351 kts | 217° |
| 2026-04-21 16:28 | 33.20796 | -63.80434 | 20465 ft | 348 kts | 218° |
| 2026-04-21 16:29 | 33.18799 | -63.82063 | 19908 ft | 346 kts | 218° |
| 2026-04-21 16:29 | 33.16834 | -63.83666 | 19346 ft | 344 kts | 218° |
| 2026-04-21 16:29 | 33.14854 | -63.85280 | 18792 ft | 343 kts | 218° |
| 2026-04-21 16:29 | 33.12879 | -63.86890 | 18250 ft | 342 kts | 218° |
| 2026-04-21 16:30 | 33.10943 | -63.88466 | 17677 ft | 340 kts | 218° |
| 2026-04-21 16:30 | 33.08998 | -63.90049 | 17196 ft | 336 kts | 219° |
| 2026-04-21 16:30 | 33.07072 | -63.91615 | 16694 ft | 333 kts | 219° |
| 2026-04-21 16:30 | 33.05159 | -63.93170 | 16196 ft | 331 kts | 219° |
| 2026-04-21 16:31 | 33.03278 | -63.94698 | 15663 ft | 331 kts | 219° |
| 2026-04-21 16:31 | 33.01373 | -63.96246 | 15160 ft | 329 kts | 219° |
| 2026-04-21 16:31 | 32.99479 | -63.97783 | 14674 ft | 328 kts | 219° |
| 2026-04-21 16:31 | 32.97588 | -63.99318 | 14184 ft | 327 kts | 220° |
| 2026-04-21 16:32 | 32.95727 | -64.00827 | 13691 ft | 326 kts | 220° |
| 2026-04-21 16:32 | 32.93846 | -64.02352 | 13169 ft | 325 kts | 220° |
| 2026-04-21 16:32 | 32.91981 | -64.03862 | 12674 ft | 323 kts | 220° |
| 2026-04-21 16:32 | 32.90123 | -64.05366 | 12188 ft | 322 kts | 220° |
| 2026-04-21 16:33 | 32.88263 | -64.06870 | 11720 ft | 324 kts | 220° |
| 2026-04-21 16:33 | 32.86381 | -64.08396 | 11248 ft | 332 kts | 220° |
| 2026-04-21 16:33 | 32.84470 | -64.09948 | 10787 ft | 339 kts | 220° |
| 2026-04-21 16:33 | 32.82537 | -64.11506 | 10643 ft | 329 kts | 220° |
| 2026-04-21 16:34 | 32.80664 | -64.13011 | 10487 ft | 318 kts | 220° |
| 2026-04-21 16:34 | 32.78885 | -64.14439 | 10343 ft | 306 kts | 220° |
| 2026-04-21 16:34 | 32.77145 | -64.15838 | 10215 ft | 295 kts | 221° |
| 2026-04-21 16:34 | 32.75470 | -64.17185 | 10083 ft | 285 kts | 221° |
| 2026-04-21 16:35 | 32.73849 | -64.18490 | 9891 ft | 278 kts | 221° |
| 2026-04-21 16:35 | 32.72277 | -64.19760 | 9584 ft | 275 kts | 221° |
| 2026-04-21 16:35 | 32.70696 | -64.21038 | 9266 ft | 272 kts | 220° |
| 2026-04-21 16:35 | 32.69138 | -64.22294 | 8978 ft | 269 kts | 221° |
| 2026-04-21 16:36 | 32.67588 | -64.23543 | 8696 ft | 267 kts | 220° |
| 2026-04-21 16:36 | 32.66059 | -64.24774 | 8406 ft | 264 kts | 220° |
| 2026-04-21 16:36 | 32.64544 | -64.25993 | 8121 ft | 263 kts | 220° |
| 2026-04-21 16:36 | 32.63050 | -64.27195 | 7822 ft | 261 kts | 220° |
| 2026-04-21 16:37 | 32.61549 | -64.28402 | 7546 ft | 259 kts | 220° |
| 2026-04-21 16:37 | 32.60055 | -64.29601 | 7270 ft | 258 kts | 220° |
| 2026-04-21 16:37 | 32.58590 | -64.30777 | 7007 ft | 256 kts | 220° |
| 2026-04-21 16:37 | 32.57108 | -64.31967 | 6714 ft | 256 kts | 220° |
| 2026-04-21 16:38 | 32.55631 | -64.33152 | 6431 ft | 255 kts | 220° |
| 2026-04-21 16:38 | 32.54157 | -64.34334 | 6135 ft | 255 kts | 220° |
| 2026-04-21 16:38 | 32.52690 | -64.35510 | 5885 ft | 252 kts | 220° |
| 2026-04-21 16:38 | 32.51256 | -64.36657 | 5698 ft | 247 kts | 220° |
| 2026-04-21 16:39 | 32.49842 | -64.37788 | 5450 ft | 244 kts | 220° |
| 2026-04-21 16:39 | 32.48445 | -64.38910 | 5093 ft | 246 kts | 220° |
| 2026-04-21 16:39 | 32.47046 | -64.40028 | 4978 ft | 238 kts | 220° |
| 2026-04-21 16:39 | 32.45683 | -64.41117 | 4849 ft | 235 kts | 220° |
| 2026-04-21 16:40 | 32.44347 | -64.42184 | 4748 ft | 231 kts | 220° |
| 2026-04-21 16:40 | 32.43026 | -64.43239 | 4600 ft | 228 kts | 219° |
| 2026-04-21 16:40 | 32.41568 | -64.44015 | 4187 ft | 238 kts | 197° |
| 2026-04-21 16:40 | 32.39914 | -64.44367 | 3872 ft | 243 kts | 194° |
| 2026-04-21 16:41 | 32.38253 | -64.44765 | 3686 ft | 242 kts | 195° |
| 2026-04-21 16:41 | 32.36641 | -64.45166 | 3559 ft | 239 kts | 195° |
| 2026-04-21 16:41 | 32.35027 | -64.45627 | 3272 ft | 236 kts | 205° |
| 2026-04-21 16:41 | 32.33778 | -64.46763 | 3006 ft | 220 kts | 243° |
| 2026-04-21 16:42 | 32.33375 | -64.48362 | 2865 ft | 193 kts | 278° |
| 2026-04-21 16:42 | 32.33477 | -64.49871 | 2745 ft | 179 kts | 282° |
| 2026-04-21 16:42 | 32.33611 | -64.51313 | 2531 ft | 177 kts | 285° |
| 2026-04-21 16:42 | 32.33827 | -64.52749 | 2321 ft | 174 kts | 288° |
| 2026-04-21 16:43 | 32.34059 | -64.54124 | 2082 ft | 173 kts | 289° |
| 2026-04-21 16:43 | 32.34297 | -64.55513 | 1860 ft | 170 kts | 288° |
| 2026-04-21 16:43 | 32.34521 | -64.56832 | 1628 ft | 156 kts | 288° |
| 2026-04-21 16:43 | 32.34732 | -64.58068 | 1418 ft | 151 kts | 289° |
| 2026-04-21 16:44 | 32.34931 | -64.59233 | 1212 ft | 137 kts | 290° |
| 2026-04-21 16:44 | 32.35114 | -64.60303 | 1054 ft | 131 kts | 290° |
| 2026-04-21 16:44 | 32.35297 | -64.61367 | 871 ft | 132 kts | 290° |
| 2026-04-21 16:44 | 32.35479 | -64.62433 | 705 ft | 132 kts | 289° |
| 2026-04-21 16:45 | 32.35655 | -64.63469 | 553 ft | 129 kts | 291° |
| 2026-04-21 16:45 | 32.35828 | -64.64489 | 372 ft | 126 kts | 290° |
| 2026-04-21 16:45 | 32.36001 | -64.65513 | 214 ft | 128 kts | 290° |
| 2026-04-21 16:45 | 32.36176 | -64.66570 | 23 ft | 134 kts | 290° |
| 2026-04-21 16:46 | 32.36351 | -64.67513 | 8 ft | 93 kts | 279° |
| 2026-04-21 16:46 | 32.36439 | -64.68073 | 10 ft | 56 kts | 282° |
| 2026-04-21 16:46 | 32.36515 | -64.68477 | 11 ft | 46 kts | 280° |
| 2026-04-21 16:46 | 32.36533 | -64.68593 | 10 ft | 43 kts | 280° |
| 2026-04-21 16:47 | 32.36624 | -64.69100 | 8 ft | 26 kts | 277° |
| 2026-04-21 16:47 | 32.36587 | -64.69260 | 9 ft | 20 kts | 248° |
| 2026-04-21 16:47 | 32.36536 | -64.69409 | 8 ft | 20 kts | 248° |
| 2026-04-21 16:47 | 32.36486 | -64.69559 | 9 ft | 20 kts | 248° |
| 2026-04-21 16:48 | 32.36430 | -64.69706 | 10 ft | 20 kts | 245° |
| 2026-04-21 16:48 | 32.36376 | -64.69851 | 9 ft | 15 kts | 248° |
| 2026-04-21 16:48 | 32.36336 | -64.69967 | 9 ft | 15 kts | 248° |
| 2026-04-21 16:48 | 32.36296 | -64.70086 | 9 ft | 15 kts | 249° |
| 2026-04-21 16:49 | 32.36271 | -64.70190 | 9 ft | 9 kts | 257° |
| 2026-04-21 16:49 | 32.36255 | -64.70242 | 9 ft | 7 kts | 248° |
| 2026-04-21 16:49 | 32.36239 | -64.70291 | 9 ft | 6 kts | 249° |
| 2026-04-21 16:49 | 32.36234 | -64.70305 | 9 ft | 0 kts | 249° |